createdAt,value
2018-12-26T00:01:34.427Z,-4.34
2018-12-26T00:04:03.591Z,-4.41
2018-12-26T00:06:32.683Z,-4.35
2018-12-26T00:09:01.807Z,-4.35
2018-12-26T00:11:30.904Z,-4.36
2018-12-26T00:14:00.009Z,-4.44
2018-12-26T00:16:29.121Z,-4.32
2018-12-26T00:18:58.220Z,-4.43
2018-12-26T00:21:27.340Z,-4.40
2018-12-26T00:23:56.483Z,-4.35
2018-12-26T00:26:25.647Z,-4.34
2018-12-26T00:28:54.760Z,-4.36
2018-12-26T00:31:23.893Z,-4.49
2018-12-26T00:33:52.988Z,-4.41
2018-12-26T00:36:22.101Z,-4.44
2018-12-26T00:38:51.197Z,-4.48
2018-12-26T00:41:20.318Z,-4.48
2018-12-26T00:43:49.441Z,-4.48
2018-12-26T00:46:18.568Z,-4.52
2018-12-26T00:48:47.673Z,-4.67
2018-12-26T00:51:16.791Z,-4.69
2018-12-26T00:53:45.893Z,-4.61
2018-12-26T00:56:15.028Z,-4.53
2018-12-26T00:58:44.121Z,-4.58
2018-12-26T01:01:13.234Z,-4.75
2018-12-26T01:03:42.345Z,-4.57
2018-12-26T01:06:11.450Z,-4.57
2018-12-26T01:08:40.537Z,-4.58
2018-12-26T01:11:09.659Z,-4.40
2018-12-26T01:13:38.753Z,-4.35
2018-12-26T01:16:07.877Z,-4.26
2018-12-26T01:18:36.980Z,-4.47
2018-12-26T01:21:06.099Z,-4.53
2018-12-26T01:23:35.244Z,-4.73
2018-12-26T01:26:04.360Z,-4.68
2018-12-26T01:28:33.460Z,-4.60
2018-12-26T01:31:02.598Z,-4.66
2018-12-26T01:33:31.703Z,-4.67
2018-12-26T01:36:00.827Z,-4.82
2018-12-26T01:38:29.916Z,-4.85
2018-12-26T01:40:59.033Z,-4.95
2018-12-26T01:43:28.153Z,-4.94
2018-12-26T01:45:57.270Z,-5.01
2018-12-26T01:48:26.369Z,-4.95
2018-12-26T01:50:55.493Z,-4.93
2018-12-26T01:53:24.591Z,-4.97
2018-12-26T01:55:53.692Z,-4.94
2018-12-26T01:58:22.817Z,-5.05
2018-12-26T02:00:51.912Z,-5.09
2018-12-26T02:03:21.121Z,-5.16
2018-12-26T02:05:50.227Z,-5.24
2018-12-26T02:08:19.347Z,-5.30
2018-12-26T02:10:48.452Z,-5.33
2018-12-26T02:13:17.587Z,-5.40
2018-12-26T02:15:46.683Z,-5.26
2018-12-26T02:18:15.791Z,-5.28
2018-12-26T02:20:44.895Z,-5.32
2018-12-26T02:23:14.015Z,-5.28
2018-12-26T02:25:43.118Z,-5.40
2018-12-26T02:28:12.230Z,-5.43
2018-12-26T02:30:41.355Z,-5.34
2018-12-26T02:33:10.474Z,-5.42
2018-12-26T02:35:39.572Z,-5.39
2018-12-26T02:38:08.706Z,-5.49
2018-12-26T02:40:37.804Z,-5.42
2018-12-26T02:43:06.926Z,-5.41
2018-12-26T02:45:36.023Z,-5.36
2018-12-26T02:48:05.142Z,-5.45
2018-12-26T02:50:34.229Z,-5.48
2018-12-26T02:53:03.554Z,-5.40
2018-12-26T02:55:32.649Z,-5.37
2018-12-26T02:58:01.775Z,-5.46
2018-12-26T03:00:30.861Z,-5.40
2018-12-26T03:03:00.001Z,-5.33
2018-12-26T03:05:29.102Z,-5.39
2018-12-26T03:07:58.217Z,-5.42
2018-12-26T03:10:27.333Z,-5.35
2018-12-26T03:12:56.464Z,-5.34
2018-12-26T03:15:25.553Z,-5.39
2018-12-26T03:17:54.695Z,-5.41
2018-12-26T03:20:23.794Z,-5.29
2018-12-26T03:22:52.893Z,-5.40
2018-12-26T03:25:22.001Z,-5.31
2018-12-26T03:27:51.094Z,-5.39
2018-12-26T03:30:20.219Z,-5.37
2018-12-26T03:32:49.348Z,-5.35
2018-12-26T03:35:18.464Z,-5.43
2018-12-26T03:37:47.551Z,-5.56
2018-12-26T03:40:16.668Z,-5.66
2018-12-26T03:42:45.761Z,-5.63
2018-12-26T03:45:14.888Z,-5.38
2018-12-26T03:47:44.988Z,-5.46
2018-12-26T03:50:14.116Z,-5.41
2018-12-26T03:52:43.239Z,-5.54
2018-12-26T03:55:12.344Z,-5.61
2018-12-26T03:57:41.444Z,-5.66
2018-12-26T04:00:10.595Z,-5.59
2018-12-26T04:02:39.706Z,-5.39
2018-12-26T04:05:08.830Z,-5.45
2018-12-26T04:07:38.050Z,-5.45
2018-12-26T04:10:07.136Z,-5.44
2018-12-26T04:12:36.336Z,-5.38
2018-12-26T04:15:05.449Z,-5.44
2018-12-26T04:17:34.651Z,-5.47
2018-12-26T04:20:03.766Z,-5.56
2018-12-26T04:22:32.863Z,-5.51
2018-12-26T04:25:01.975Z,-5.44
2018-12-26T04:27:31.067Z,-5.49
2018-12-26T04:30:00.262Z,-5.50
2018-12-26T04:32:29.325Z,-5.55
2018-12-26T04:34:58.451Z,-5.54
2018-12-26T04:37:27.550Z,-5.54
2018-12-26T04:39:56.677Z,-5.48
2018-12-26T04:42:25.779Z,-5.56
2018-12-26T04:44:55.146Z,-5.52
2018-12-26T04:47:24.239Z,-5.50
2018-12-26T04:49:53.358Z,-5.57
2018-12-26T04:52:22.470Z,-5.47
2018-12-26T04:54:51.600Z,-5.44
2018-12-26T04:57:24.996Z,-5.44
2018-12-26T04:59:51.550Z,-5.46
2018-12-26T05:02:20.642Z,-5.51
2018-12-26T05:04:49.761Z,-5.58
2018-12-26T05:07:18.861Z,-5.52
2018-12-26T05:09:47.968Z,-5.60
2018-12-26T05:12:17.078Z,-5.69
2018-12-26T05:14:46.181Z,-5.59
2018-12-26T05:17:15.302Z,-5.54
2018-12-26T05:19:44.392Z,-5.65
2018-12-26T05:22:13.520Z,-5.73
2018-12-26T05:24:42.819Z,-5.66
2018-12-26T05:27:11.941Z,-5.63
2018-12-26T05:29:41.039Z,-5.64
2018-12-26T05:32:10.282Z,-5.62
2018-12-26T05:34:39.392Z,-5.69
2018-12-26T05:37:08.518Z,-5.66
2018-12-26T05:39:37.633Z,-5.55
2018-12-26T05:42:06.767Z,-5.65
2018-12-26T05:44:35.893Z,-5.60
2018-12-26T05:47:05.049Z,-5.59
2018-12-26T05:49:34.133Z,-5.47
2018-12-26T05:52:03.255Z,-5.62
2018-12-26T05:54:32.369Z,-5.68
2018-12-26T05:57:01.499Z,-5.68
2018-12-26T05:59:30.604Z,-5.59
2018-12-26T06:01:59.742Z,-5.64
2018-12-26T06:04:28.851Z,-5.66
2018-12-26T06:06:57.980Z,-5.55
2018-12-26T06:09:27.078Z,-5.56
2018-12-26T06:11:56.205Z,-5.56
2018-12-26T06:14:25.319Z,-5.55
2018-12-26T06:16:54.411Z,-5.64
2018-12-26T06:19:23.498Z,-5.52
2018-12-26T06:21:52.620Z,-5.51
2018-12-26T06:24:21.718Z,-5.31
2018-12-26T06:26:50.820Z,-5.31
2018-12-26T06:29:19.936Z,-5.35
2018-12-26T06:31:49.089Z,-5.19
2018-12-26T06:34:18.218Z,-5.25
2018-12-26T06:36:47.314Z,-5.32
2018-12-26T06:39:16.445Z,-5.27
2018-12-26T06:41:45.541Z,-5.35
2018-12-26T06:44:14.654Z,-5.34
2018-12-26T06:46:43.762Z,-5.30
2018-12-26T06:49:12.875Z,-5.37
2018-12-26T06:51:41.982Z,-5.28
2018-12-26T06:54:11.104Z,-5.49
2018-12-26T06:56:40.200Z,-5.48
2018-12-26T06:59:09.336Z,-5.42
2018-12-26T07:01:38.439Z,-5.44
2018-12-26T07:04:07.558Z,-5.21
2018-12-26T07:06:36.666Z,-5.26
2018-12-26T07:09:06.911Z,-5.37
2018-12-26T07:11:36.023Z,-5.44
2018-12-26T07:14:05.328Z,-5.32
2018-12-26T07:16:34.440Z,-5.37
2018-12-26T07:19:03.565Z,-5.23
2018-12-26T07:21:32.660Z,-5.21
2018-12-26T07:24:01.787Z,-5.16
2018-12-26T07:26:30.891Z,-5.25
2018-12-26T07:29:01.040Z,-5.19
2018-12-26T07:31:30.208Z,-5.24
2018-12-26T07:33:59.325Z,-5.21
2018-12-26T07:36:28.435Z,-5.25
2018-12-26T07:38:57.551Z,-5.16
2018-12-26T07:41:26.651Z,-5.09
2018-12-26T07:43:55.770Z,-5.07
2018-12-26T07:46:24.857Z,-4.98
2018-12-26T07:48:53.963Z,-5.03
2018-12-26T07:51:23.088Z,-4.97
2018-12-26T07:53:52.199Z,-4.86
2018-12-26T07:56:21.324Z,-4.84
2018-12-26T07:58:50.429Z,-4.78
2018-12-26T08:01:19.557Z,-4.57
2018-12-26T08:03:48.652Z,-4.70
2018-12-26T08:06:17.806Z,-4.61
2018-12-26T08:08:46.981Z,-4.53
2018-12-26T08:11:16.107Z,-4.45
2018-12-26T08:13:45.205Z,-4.33
2018-12-26T08:16:14.326Z,-4.34
2018-12-26T08:18:43.447Z,-4.31
2018-12-26T08:21:12.579Z,-4.14
2018-12-26T08:23:41.678Z,-3.98
2018-12-26T08:26:10.791Z,-3.87
2018-12-26T08:28:39.901Z,-3.20
2018-12-26T08:31:09.035Z,-2.91
2018-12-26T08:33:38.190Z,-2.76
2018-12-26T08:36:07.319Z,-2.68
2018-12-26T08:38:36.421Z,-2.24
2018-12-26T08:41:05.534Z,-1.90
2018-12-26T08:43:34.633Z,-0.61
2018-12-26T08:46:03.755Z,0.04
2018-12-26T08:48:32.850Z,0.18
2018-12-26T08:51:01.966Z,0.60
2018-12-26T08:53:31.066Z,0.95
2018-12-26T08:56:00.173Z,1.64
2018-12-26T08:58:35.180Z,2.54
2018-12-26T09:01:00.107Z,1.88
2018-12-26T09:03:29.209Z,1.84
2018-12-26T09:05:58.323Z,1.53
2018-12-26T09:08:27.425Z,3.05
2018-12-26T09:10:56.535Z,3.99
2018-12-26T09:13:25.651Z,4.74
2018-12-26T09:15:54.755Z,6.17
2018-12-26T09:18:23.875Z,8.64
2018-12-26T09:20:52.977Z,10.12
2018-12-26T09:23:22.085Z,9.60
2018-12-26T09:25:56.636Z,9.99
2018-12-26T09:28:25.779Z,10.99
2018-12-26T09:30:54.884Z,11.18
2018-12-26T09:33:24.040Z,12.40
2018-12-26T09:35:53.148Z,12.84
2018-12-26T09:38:22.278Z,13.64
2018-12-26T09:40:51.392Z,14.15
2018-12-26T09:43:20.511Z,13.73
2018-12-26T09:45:49.622Z,13.33
2018-12-26T09:48:18.745Z,12.47
2018-12-26T09:50:47.860Z,11.46
2018-12-26T09:53:16.991Z,11.63
2018-12-26T09:55:46.093Z,13.44
2018-12-26T09:58:15.936Z,13.94
2018-12-26T10:00:45.045Z,12.88
2018-12-26T10:03:14.182Z,12.60
2018-12-26T10:05:43.291Z,11.55
2018-12-26T10:08:12.414Z,10.51
2018-12-26T10:10:41.511Z,10.93
2018-12-26T10:13:10.602Z,9.70
2018-12-26T10:15:39.734Z,8.36
2018-12-26T10:18:08.852Z,7.75
2018-12-26T10:20:37.958Z,8.27
2018-12-26T10:23:07.059Z,8.41
2018-12-26T10:25:36.184Z,8.75
2018-12-26T10:28:05.288Z,9.10
2018-12-26T10:30:34.418Z,9.64
2018-12-26T10:33:03.544Z,10.74
2018-12-26T10:35:32.672Z,11.04
2018-12-26T10:38:01.785Z,12.59
2018-12-26T10:40:30.929Z,11.81
2018-12-26T10:43:00.041Z,12.16
2018-12-26T10:45:29.171Z,8.98
2018-12-26T10:47:58.274Z,10.16
2018-12-26T10:50:27.395Z,9.47
2018-12-26T10:52:56.509Z,10.65
2018-12-26T10:55:25.625Z,9.27
2018-12-26T10:57:54.823Z,9.82
2018-12-26T11:00:23.961Z,12.87
2018-12-26T11:02:53.072Z,13.37
2018-12-26T11:05:29.519Z,15.70
2018-12-26T11:07:53.047Z,17.99
2018-12-26T11:10:22.162Z,20.52
2018-12-26T11:12:51.337Z,22.56
2018-12-26T11:15:20.458Z,22.77
2018-12-26T11:17:49.564Z,24.29
2018-12-26T11:20:18.695Z,25.80
2018-12-26T11:22:47.794Z,25.19
2018-12-26T11:25:16.911Z,23.42
2018-12-26T11:27:46.010Z,23.96
2018-12-26T11:30:15.140Z,24.74
2018-12-26T11:32:44.256Z,22.80
2018-12-26T11:35:13.383Z,23.00
2018-12-26T11:37:42.478Z,25.20
2018-12-26T11:40:11.811Z,24.29
2018-12-26T11:42:41.078Z,22.09
2018-12-26T11:45:10.150Z,22.88
2018-12-26T11:47:39.253Z,22.95
2018-12-26T11:50:08.671Z,21.82
2018-12-26T11:52:37.792Z,20.56
2018-12-26T11:55:07.017Z,21.07
2018-12-26T11:57:36.975Z,20.57
2018-12-26T12:00:07.249Z,22.19
2018-12-26T12:02:36.389Z,22.88
2018-12-26T12:05:05.845Z,22.36
2018-12-26T12:07:34.987Z,21.67
2018-12-26T12:10:04.220Z,21.35
2018-12-26T12:12:33.345Z,20.25
2018-12-26T12:15:02.448Z,20.80
2018-12-26T12:17:31.574Z,22.91
2018-12-26T12:20:00.666Z,21.32
2018-12-26T12:22:29.786Z,20.29
2018-12-26T12:24:58.878Z,20.24
2018-12-26T12:27:27.996Z,20.45
2018-12-26T12:29:57.089Z,18.29
2018-12-26T12:32:26.236Z,21.88
2018-12-26T12:34:55.382Z,21.38
2018-12-26T12:37:24.513Z,22.62
2018-12-26T12:39:53.607Z,23.33
2018-12-26T12:42:23.842Z,22.77
2018-12-26T12:44:52.945Z,20.94
2018-12-26T12:47:22.089Z,20.31
2018-12-26T12:49:51.291Z,19.86
2018-12-26T12:52:20.419Z,22.80
2018-12-26T12:54:49.523Z,21.56
2018-12-26T12:57:18.642Z,22.02
2018-12-26T12:59:47.750Z,22.23
2018-12-26T13:02:17.753Z,21.90
2018-12-26T13:04:46.862Z,22.54
2018-12-26T13:07:15.990Z,21.86
2018-12-26T13:09:45.085Z,21.74
2018-12-26T13:12:14.192Z,20.33
2018-12-26T13:14:43.290Z,19.28
2018-12-26T13:17:12.383Z,19.70
2018-12-26T13:19:41.519Z,19.79
2018-12-26T13:22:10.628Z,18.79
2018-12-26T13:24:39.751Z,18.17
2018-12-26T13:27:09.078Z,17.73
2018-12-26T13:29:38.192Z,19.59
2018-12-26T13:32:07.354Z,18.67
2018-12-26T13:34:36.499Z,19.28
2018-12-26T13:37:05.599Z,21.01
2018-12-26T13:39:34.724Z,20.62
2018-12-26T13:42:03.857Z,20.67
2018-12-26T13:44:34.512Z,21.07
2018-12-26T13:47:03.632Z,21.20
2018-12-26T13:49:32.750Z,19.14
2018-12-26T13:52:01.847Z,18.38
2018-12-26T13:54:30.967Z,18.57
2018-12-26T13:57:00.080Z,17.91
2018-12-26T13:59:29.213Z,16.47
2018-12-26T14:01:58.319Z,16.60
2018-12-26T14:04:27.439Z,16.38
2018-12-26T14:06:56.543Z,15.49
2018-12-26T14:09:25.807Z,15.71
2018-12-26T14:11:54.901Z,16.53
2018-12-26T14:14:24.024Z,16.16
2018-12-26T14:16:53.119Z,15.16
2018-12-26T14:19:22.239Z,15.95
2018-12-26T14:21:51.338Z,17.29
2018-12-26T14:24:20.463Z,16.87
2018-12-26T14:26:49.562Z,17.29
2018-12-26T14:29:18.687Z,17.78
2018-12-26T14:31:47.804Z,17.80
2018-12-26T14:34:16.921Z,16.79
2018-12-26T14:36:46.051Z,16.26
2018-12-26T14:39:15.145Z,14.39
2018-12-26T14:41:44.271Z,13.46
2018-12-26T14:44:13.364Z,12.18
2018-12-26T14:46:42.489Z,11.53
2018-12-26T14:49:11.587Z,11.87
2018-12-26T14:51:40.705Z,12.14
2018-12-26T14:54:09.822Z,10.57
2018-12-26T14:56:38.945Z,9.47
2018-12-26T14:59:08.052Z,9.46
2018-12-26T15:01:37.175Z,8.71
2018-12-26T15:04:06.282Z,7.01
2018-12-26T15:06:35.422Z,6.34
2018-12-26T15:09:06.521Z,5.23
2018-12-26T15:11:35.580Z,4.46
2018-12-26T15:14:04.691Z,4.05
2018-12-26T15:16:33.809Z,4.00
2018-12-26T15:19:19.431Z,3.54
2018-12-26T15:21:48.557Z,3.27
2018-12-26T15:24:17.654Z,3.13
2018-12-26T15:26:46.771Z,3.10
2018-12-26T15:29:15.872Z,2.74
2018-12-26T15:31:45.008Z,2.59
2018-12-26T15:34:14.134Z,2.41
2018-12-26T15:36:43.349Z,2.12
2018-12-26T15:39:12.538Z,2.11
2018-12-26T15:41:41.671Z,1.82
2018-12-26T15:44:10.761Z,1.78
2018-12-26T15:46:39.869Z,1.62
2018-12-26T15:49:08.969Z,1.42
2018-12-26T15:51:38.087Z,1.49
2018-12-26T15:54:07.181Z,1.44
2018-12-26T15:56:36.376Z,1.32
2018-12-26T15:59:05.466Z,1.18
2018-12-26T16:01:34.587Z,1.06
2018-12-26T16:04:03.690Z,0.92
2018-12-26T16:06:32.817Z,0.91
2018-12-26T16:09:02.435Z,0.91
2018-12-26T16:11:31.534Z,0.85
2018-12-26T16:14:00.650Z,0.83
2018-12-26T16:16:29.758Z,0.77
2018-12-26T16:18:58.883Z,0.84
2018-12-26T16:21:27.990Z,0.82
2018-12-26T16:23:57.115Z,0.57
2018-12-26T16:26:26.209Z,0.51
2018-12-26T16:28:55.371Z,0.50
2018-12-26T16:31:24.550Z,0.65
2018-12-26T16:33:53.689Z,0.38
2018-12-26T16:36:22.787Z,0.52
2018-12-26T16:38:51.900Z,0.47
2018-12-26T16:41:20.997Z,0.33
2018-12-26T16:43:50.119Z,0.32
2018-12-26T16:46:19.205Z,0.32
2018-12-26T16:48:48.319Z,0.14
2018-12-26T16:51:17.429Z,0.13
2018-12-26T16:53:46.564Z,0.15
2018-12-26T16:56:15.655Z,0.20
2018-12-26T16:58:44.765Z,0.19
2018-12-26T17:01:13.865Z,0.13
2018-12-26T17:03:42.973Z,0.19
2018-12-26T17:06:12.074Z,-0.01
2018-12-26T17:08:41.192Z,0.17
2018-12-26T17:11:10.296Z,0.01
2018-12-26T17:13:39.429Z,-0.18
2018-12-26T17:16:08.536Z,-0.42
2018-12-26T17:18:37.656Z,-0.48
2018-12-26T17:21:06.767Z,-0.38
2018-12-26T17:23:35.904Z,-0.34
2018-12-26T17:26:05.006Z,-0.35
2018-12-26T17:28:34.129Z,-0.35
2018-12-26T17:31:05.258Z,-0.38
2018-12-26T17:33:34.406Z,-0.30
2018-12-26T17:36:03.503Z,-0.33
2018-12-26T17:38:32.641Z,-0.18
2018-12-26T17:41:01.747Z,-0.29
2018-12-26T17:43:30.852Z,-0.44
2018-12-26T17:45:59.974Z,-0.54
2018-12-26T17:48:29.097Z,-0.53
2018-12-26T17:50:59.091Z,-0.53
2018-12-26T17:54:14.290Z,-0.55
2018-12-26T17:56:51.178Z,-0.61
2018-12-26T17:59:25.383Z,-0.67
2018-12-26T18:02:08.759Z,-0.66
2018-12-26T18:04:37.893Z,-0.70
2018-12-26T18:07:06.994Z,-0.62
2018-12-26T18:09:36.124Z,-0.67
2018-12-26T18:12:11.711Z,-0.56
2018-12-26T18:14:36.065Z,-0.66
2018-12-26T18:17:05.168Z,-0.59
2018-12-26T18:19:34.291Z,-0.55
2018-12-26T18:22:03.396Z,-0.45
2018-12-26T18:24:32.508Z,-0.62
2018-12-26T18:27:01.641Z,-0.68
2018-12-26T18:29:30.759Z,-0.70
2018-12-26T18:31:59.883Z,-0.83
2018-12-26T18:34:29.005Z,-0.92
2018-12-26T18:36:58.122Z,-0.89
2018-12-26T18:39:27.225Z,-0.81
2018-12-26T18:41:56.343Z,-0.96
2018-12-26T18:44:25.379Z,-0.96
2018-12-26T18:46:54.501Z,-0.92
2018-12-26T18:49:23.594Z,-0.90
2018-12-26T18:51:52.724Z,-0.73
2018-12-26T18:54:21.824Z,-0.77
2018-12-26T18:56:50.958Z,-0.83
2018-12-26T18:59:20.066Z,-0.91
2018-12-26T19:01:50.435Z,-0.93
2018-12-26T19:04:19.685Z,-0.99
2018-12-26T19:06:48.799Z,-0.96
2018-12-26T19:09:17.894Z,-0.98
2018-12-26T19:11:47.013Z,-1.01
2018-12-26T19:14:16.191Z,-1.02
2018-12-26T19:16:45.320Z,-1.05
2018-12-26T19:19:14.409Z,-1.05
2018-12-26T19:21:43.616Z,-1.03
2018-12-26T19:24:12.715Z,-0.94
2018-12-26T19:26:41.839Z,-1.03
2018-12-26T19:29:10.935Z,-1.03
2018-12-26T19:31:40.052Z,-1.09
2018-12-26T19:34:09.179Z,-1.03
2018-12-26T19:36:38.380Z,-1.09
2018-12-26T19:39:08.028Z,-1.11
2018-12-26T19:41:37.149Z,-0.97
2018-12-26T19:44:06.252Z,-1.06
2018-12-26T19:46:35.380Z,-1.12
2018-12-26T19:49:04.482Z,-1.29
2018-12-26T19:51:33.619Z,-1.34
2018-12-26T19:54:02.723Z,-1.33
2018-12-26T19:56:31.824Z,-1.25
2018-12-26T19:59:01.832Z,-1.17
2018-12-26T20:01:30.935Z,-1.39
2018-12-26T20:04:00.059Z,-1.39
2018-12-26T20:06:29.167Z,-1.33
2018-12-26T20:08:58.291Z,-1.39
2018-12-26T20:11:27.387Z,-1.39
2018-12-26T20:13:56.513Z,-1.38
2018-12-26T20:16:25.610Z,-1.44
2018-12-26T20:18:54.735Z,-1.30
2018-12-26T20:21:23.852Z,-1.23
2018-12-26T20:23:52.980Z,-1.28
2018-12-26T20:26:22.074Z,-1.33
2018-12-26T20:28:51.195Z,-1.40
2018-12-26T20:31:20.301Z,-1.43
2018-12-26T20:33:49.475Z,-1.36
2018-12-26T20:36:18.589Z,-1.34
2018-12-26T20:38:47.727Z,-1.36
2018-12-26T20:41:17.583Z,-1.59
2018-12-26T20:43:47.317Z,-1.64
2018-12-26T20:46:17.160Z,-1.58
2018-12-26T20:48:46.571Z,-1.69
2018-12-26T20:51:16.139Z,-1.73
2018-12-26T20:53:45.266Z,-1.67
2018-12-26T20:56:14.992Z,-1.67
2018-12-26T20:58:45.035Z,-1.66
2018-12-26T21:01:14.711Z,-1.66
2018-12-26T21:03:44.855Z,-1.69
2018-12-26T21:06:14.636Z,-1.77
2018-12-26T21:08:44.570Z,-1.78
2018-12-26T21:11:14.382Z,-1.80
2018-12-26T21:13:43.943Z,-1.63
2018-12-26T21:16:13.690Z,-1.67
2018-12-26T21:18:43.159Z,-1.72
2018-12-26T21:21:12.654Z,-1.64
2018-12-26T21:23:41.835Z,-1.69
2018-12-26T21:26:10.968Z,-1.67
2018-12-26T21:28:40.069Z,-1.70
2018-12-26T21:31:09.192Z,-1.72
2018-12-26T21:33:38.394Z,-1.79
2018-12-26T21:36:07.523Z,-1.74
2018-12-26T21:38:37.368Z,-1.52
2018-12-26T21:41:07.128Z,-1.50
2018-12-26T21:43:36.939Z,-1.62
2018-12-26T21:46:06.815Z,-1.68
2018-12-26T21:48:36.343Z,-1.70
2018-12-26T21:51:05.874Z,-1.74
2018-12-26T21:53:35.651Z,-1.70
2018-12-26T21:56:05.945Z,-1.75
2018-12-26T21:58:35.747Z,-1.85
2018-12-26T22:01:05.834Z,-1.85
2018-12-26T22:03:35.186Z,-1.68
2018-12-26T22:06:04.899Z,-1.76
2018-12-26T22:08:34.532Z,-1.67
2018-12-26T22:11:04.390Z,-1.70
2018-12-26T22:13:33.984Z,-1.64
2018-12-26T22:16:03.736Z,-1.59
2018-12-26T22:18:33.832Z,-1.71
2018-12-26T22:21:04.698Z,-1.66
2018-12-26T22:23:34.536Z,-1.74
2018-12-26T22:26:04.536Z,-1.76
2018-12-26T22:28:34.032Z,-1.67
2018-12-26T22:31:03.476Z,-1.65
2018-12-26T22:33:33.113Z,-1.65
2018-12-26T22:36:02.606Z,-1.71
2018-12-26T22:38:32.520Z,-1.76
2018-12-26T22:41:02.203Z,-1.82
2018-12-26T22:43:31.428Z,-1.72
2018-12-26T22:46:00.526Z,-1.84
2018-12-26T22:48:29.658Z,-1.73
2018-12-26T22:50:58.750Z,-1.84
2018-12-26T22:53:27.870Z,-1.92
2018-12-26T22:55:56.972Z,-1.89
2018-12-26T22:58:26.091Z,-1.89
2018-12-26T23:00:55.208Z,-1.85
2018-12-26T23:03:24.329Z,-2.00
2018-12-26T23:05:53.426Z,-1.93
2018-12-26T23:08:22.555Z,-2.01
2018-12-26T23:10:51.654Z,-2.05
2018-12-26T23:13:20.768Z,-2.08
2018-12-26T23:15:49.878Z,-2.14
2018-12-26T23:18:19.008Z,-2.03
2018-12-26T23:20:48.108Z,-2.08
2018-12-26T23:23:17.231Z,-2.05
2018-12-26T23:25:46.338Z,-1.95
2018-12-26T23:28:15.464Z,-1.95
2018-12-26T23:30:44.564Z,-1.83
2018-12-26T23:33:13.890Z,-1.76
2018-12-26T23:35:43.011Z,-1.83
2018-12-26T23:38:12.126Z,-1.75
2018-12-26T23:40:41.227Z,-1.71
2018-12-26T23:43:10.362Z,-1.62
2018-12-26T23:45:39.463Z,-1.59
2018-12-26T23:48:08.584Z,-1.54
2018-12-26T23:50:37.699Z,-1.46
2018-12-26T23:53:06.794Z,-1.42
2018-12-26T23:55:35.911Z,-1.44
2018-12-26T23:58:05.024Z,-1.43
